Allegheny County Airport
KAGC : rendu visible

Aérodrome :











RETROUVEZ-NOUS SUR...

 
LOGIN :

S'inscrire | Disclaimer

   EN    FR    IT 

 









Légende :    VFR   VFR Marginal   IFR   IFR Intensif   IFR Très Intensif
Visi : 
Plafond : 
>= 8 km
>= 3000ft
5 à 8 km
1000 à 3000 ft
1500m à 5 km
500 à 1000 ft
800 à 1500m
200 à 500 ft
< 800m
< 200 ft
Symboles :   Orages  Brouillard  Fortes neiges  Fortes précipitations  Vent > 20 kt






- Altitude de l'aérodrome : 1252 ft
- Code IATA : AGC


KAGC - Allegheny County

DERNIER METAR :
  • 290853Z 19007KT -RA FEW075 OVC100 16/14 A2978 RMK AO2 RAB07 SLP085 P0002 60002 T01610139 55004 $

METARs EXPIRÉS :
  • 290753Z 16008KT FEW080 16/14 A2977 RMK AO2 SLP078 T01610139 $
  • 290653Z 16008KT 10SM CLR 17/14 A2979 RMK AO2 SLP087 T01670144 $

TAF KAGC
Valide du 29 à 08h jusqu'au 30 à 06h UTC


290814Z 2908/3006 14005KT P6SM -SHRA OVC050
FM291000 17008KT P6SM OVC035 WS020/22040KT
FM291400 19015G25KT P6SM VCSH BKN025
TEMPO 2916/2918 5SM -TSRA OVC025CB
FM291800 22020G35KT P6SM BKN040
FM300000 24012G22KT P6SM SCT040



MET'MAP, la Météo Aéronautique d'un coup d'oeil ! - Copyright ORBIFLY Décembre 2007 - Disclaimer

ORBIFLY MET'MAP TEAM :

Programmation & Développement : Alexandra Zaïnal
Sur une idée originale de : Baudouin d'Aumeries
Assistance à la programmation : Marc-Olivier Méhu
Soutien technique & logistique : Manuel Goepfert

Contact : metmap@orbifly.com




SOURCES & CREDITS :

   NOAA       Earth
Advisory